Portada
METAR-TAF:

METAR-TAF

Aeroports :

Aeroport Internacional de Mitiga

Trípoli, Líbia

latitud: 32-54N, longitud: 13-17E, altitud: 11 m

Observació

L'informe es va fer fa 20 minuts, a les 11:50 UTC
Vent 13 kt del Est
Temperatura 28°C
Humitat 51%
Pressió 1014 hPa
Visibilitat: 8000 m

METAR: HLLM 161150Z 08013KT 8000 NSC 28/17 Q1014

Hora: 14:10 (12:10 UTC)

Pronòstic

L'informe es va fer fa 19 hores i 10 minuts, a les 17:00 UTC
Pronòstic vàlid del 15 a les 18 UTC al 16 a les 18 UTC
Vent 2 kt amb direcció variable
Visibilitat: 8000 m
Evolucionant progressivament
l' 16 a les 02 UTC al 16 a les 04 UTC
Vent 10 kt del Sud-Est

TAF: HLLM 151700Z 1518/1618 VRB02KT 8000 NSC BECMG 1602/1604 14010KT

Observacions i pronòstics meteorològics de més de 4000 aeroports (METAR i TAF).

Les estacions disponibles són els punts grocs i vermells al mapa.

Posi el ratolí al punt desitjat per veure el nom de l'estació.

Feu clic per veure les observacions i els pronòstics meteorològics.

Per canviar el mapa: feu clic els botons verds amb una creu de color negre per apropar; al botó verd amb un guió per allunyar la imatge; o en les fletxes verdes per a mapes adjacents.


METAR-TAF: